sensor_id;sensor_type;location;lat;lon;timestamp;pressure;altitude;pressure_sealevel;temperature;humidity
63916;BME280;50094;51.356;-0.196;2023-07-29T00:01:59;99851.45;;;26.55;40.46
63916;BME280;50094;51.356;-0.196;2023-07-29T00:04:27;99850.46;;;26.50;40.66
63916;BME280;50094;51.356;-0.196;2023-07-29T00:06:54;99847.39;;;26.63;40.69
63916;BME280;50094;51.356;-0.196;2023-07-29T00:09:20;99854.16;;;26.49;40.50
63916;BME280;50094;51.356;-0.196;2023-07-29T00:11:47;99853.76;;;26.50;40.62
63916;BME280;50094;51.356;-0.196;2023-07-29T00:14:15;99850.02;;;25.88;40.95
63916;BME280;50094;51.356;-0.196;2023-07-29T00:16:42;99853.77;;;26.63;40.76
63916;BME280;50094;51.356;-0.196;2023-07-29T00:19:10;99855.99;;;26.48;40.53
63916;BME280;50094;51.356;-0.196;2023-07-29T00:21:38;99852.68;;;26.56;40.63
63916;BME280;50094;51.356;-0.196;2023-07-29T00:24:04;99857.01;;;26.52;40.59
63916;BME280;50094;51.356;-0.196;2023-07-29T00:26:31;99866.40;;;26.38;41.04
63916;BME280;50094;51.356;-0.196;2023-07-29T00:28:58;99864.22;;;26.14;40.67
63916;BME280;50094;51.356;-0.196;2023-07-29T00:31:26;99868.11;;;26.45;40.74
63916;BME280;50094;51.356;-0.196;2023-07-29T00:33:52;99865.76;;;26.27;40.84
63916;BME280;50094;51.356;-0.196;2023-07-29T00:36:19;99862.53;;;26.41;40.66
63916;BME280;50094;51.356;-0.196;2023-07-29T00:38:46;99861.13;;;26.18;40.55
63916;BME280;50094;51.356;-0.196;2023-07-29T00:41:14;99857.65;;;26.23;40.75
63916;BME280;50094;51.356;-0.196;2023-07-29T00:43:42;99855.16;;;26.14;40.62
63916;BME280;50094;51.356;-0.196;2023-07-29T00:46:09;99855.40;;;26.09;40.43
63916;BME280;50094;51.356;-0.196;2023-07-29T00:48:37;99856.83;;;26.18;40.23
63916;BME280;50094;51.356;-0.196;2023-07-29T00:51:05;99863.48;;;26.50;40.21
63916;BME280;50094;51.356;-0.196;2023-07-29T00:53:33;99864.63;;;26.35;40.32
63916;BME280;50094;51.356;-0.196;2023-07-29T00:56:01;99858.76;;;26.31;40.58
63916;BME280;50094;51.356;-0.196;2023-07-29T00:58:28;99857.44;;;26.30;40.50
63916;BME280;50094;51.356;-0.196;2023-07-29T01:00:55;99858.12;;;26.44;40.54
63916;BME280;50094;51.356;-0.196;2023-07-29T01:03:23;99860.80;;;26.01;40.43
63916;BME280;50094;51.356;-0.196;2023-07-29T01:06:04;99856.59;;;26.25;40.46
63916;BME280;50094;51.356;-0.196;2023-07-29T01:08:42;99849.87;;;26.46;40.43
63916;BME280;50094;51.356;-0.196;2023-07-29T01:11:22;99843.84;;;26.64;40.03
63916;BME280;50094;51.356;-0.196;2023-07-29T01:13:58;99843.85;;;26.54;39.98
63916;BME280;50094;51.356;-0.196;2023-07-29T01:16:31;99842.22;;;26.40;40.10
63916;BME280;50094;51.356;-0.196;2023-07-29T01:19:05;99842.16;;;26.49;40.13
63916;BME280;50094;51.356;-0.196;2023-07-29T01:21:33;99840.34;;;26.56;40.01
63916;BME280;50094;51.356;-0.196;2023-07-29T01:24:02;99839.02;;;26.55;39.98
63916;BME280;50094;51.356;-0.196;2023-07-29T01:26:30;99840.10;;;26.58;39.88
63916;BME280;50094;51.356;-0.196;2023-07-29T01:28:57;99837.76;;;26.67;39.88
63916;BME280;50094;51.356;-0.196;2023-07-29T01:31:31;99835.97;;;26.46;39.76
63916;BME280;50094;51.356;-0.196;2023-07-29T01:34:15;99831.69;;;26.63;40.03
63916;BME280;50094;51.356;-0.196;2023-07-29T01:36:45;99832.90;;;26.68;39.73
63916;BME280;50094;51.356;-0.196;2023-07-29T01:39:14;99834.88;;;26.71;39.47
63916;BME280;50094;51.356;-0.196;2023-07-29T01:41:43;99833.85;;;26.45;39.78
63916;BME280;50094;51.356;-0.196;2023-07-29T01:44:10;99829.09;;;26.65;39.74
63916;BME280;50094;51.356;-0.196;2023-07-29T01:46:38;99828.69;;;26.93;39.32
63916;BME280;50094;51.356;-0.196;2023-07-29T01:49:05;99828.43;;;27.08;39.51
63916;BME280;50094;51.356;-0.196;2023-07-29T01:51:33;99824.71;;;26.85;39.39
63916;BME280;50094;51.356;-0.196;2023-07-29T01:54:01;99824.26;;;26.59;39.67
63916;BME280;50094;51.356;-0.196;2023-07-29T01:56:28;99831.83;;;26.68;39.48
63916;BME280;50094;51.356;-0.196;2023-07-29T01:58:56;99836.00;;;26.82;39.48
63916;BME280;50094;51.356;-0.196;2023-07-29T02:01:23;99836.46;;;26.84;39.49
63916;BME280;50094;51.356;-0.196;2023-07-29T02:03:50;99839.19;;;26.68;39.40
63916;BME280;50094;51.356;-0.196;2023-07-29T02:06:17;99840.53;;;26.48;39.53
63916;BME280;50094;51.356;-0.196;2023-07-29T02:08:44;99836.47;;;26.31;39.28
63916;BME280;50094;51.356;-0.196;2023-07-29T02:11:11;99838.14;;;26.82;39.42
63916;BME280;50094;51.356;-0.196;2023-07-29T02:13:37;99837.16;;;26.75;39.69
63916;BME280;50094;51.356;-0.196;2023-07-29T02:16:04;99833.72;;;26.85;39.33
63916;BME280;50094;51.356;-0.196;2023-07-29T02:18:32;99831.66;;;26.60;39.28
63916;BME280;50094;51.356;-0.196;2023-07-29T02:20:59;99832.17;;;26.71;39.74
63916;BME280;50094;51.356;-0.196;2023-07-29T02:23:25;99836.09;;;26.58;39.46
63916;BME280;50094;51.356;-0.196;2023-07-29T02:25:52;99838.01;;;26.75;39.42
63916;BME280;50094;51.356;-0.196;2023-07-29T02:28:20;99832.53;;;26.72;39.61
63916;BME280;50094;51.356;-0.196;2023-07-29T02:30:46;99831.38;;;26.74;39.69
63916;BME280;50094;51.356;-0.196;2023-07-29T02:33:13;99827.40;;;26.33;39.55
63916;BME280;50094;51.356;-0.196;2023-07-29T02:35:40;99823.22;;;26.78;39.62
63916;BME280;50094;51.356;-0.196;2023-07-29T02:38:08;99820.48;;;26.55;39.54
63916;BME280;50094;51.356;-0.196;2023-07-29T02:40:34;99821.20;;;26.87;39.46
63916;BME280;50094;51.356;-0.196;2023-07-29T02:43:01;99821.75;;;26.77;39.20
63916;BME280;50094;51.356;-0.196;2023-07-29T02:45:28;99815.79;;;26.28;39.54
63916;BME280;50094;51.356;-0.196;2023-07-29T02:47:56;99809.42;;;26.84;39.45
63916;BME280;50094;51.356;-0.196;2023-07-29T02:50:22;99805.87;;;26.91;39.29
63916;BME280;50094;51.356;-0.196;2023-07-29T02:52:50;99805.43;;;26.90;39.30
63916;BME280;50094;51.356;-0.196;2023-07-29T02:55:17;99808.46;;;26.79;39.12
63916;BME280;50094;51.356;-0.196;2023-07-29T02:57:44;99805.90;;;27.00;39.32
63916;BME280;50094;51.356;-0.196;2023-07-29T03:00:11;99800.54;;;26.91;39.28
63916;BME280;50094;51.356;-0.196;2023-07-29T03:02:39;99803.27;;;26.69;39.28
63916;BME280;50094;51.356;-0.196;2023-07-29T03:05:06;99798.28;;;26.63;39.50
63916;BME280;50094;51.356;-0.196;2023-07-29T03:07:34;99793.41;;;26.67;39.59
63916;BME280;50094;51.356;-0.196;2023-07-29T03:10:01;99791.68;;;26.61;39.52
63916;BME280;50094;51.356;-0.196;2023-07-29T03:12:28;99789.32;;;26.77;39.61
63916;BME280;50094;51.356;-0.196;2023-07-29T03:14:54;99787.51;;;26.87;39.31
63916;BME280;50094;51.356;-0.196;2023-07-29T03:17:21;99795.74;;;26.94;39.26
63916;BME280;50094;51.356;-0.196;2023-07-29T03:19:48;99799.79;;;26.48;39.36
63916;BME280;50094;51.356;-0.196;2023-07-29T03:22:15;99800.75;;;26.99;39.36
63916;BME280;50094;51.356;-0.196;2023-07-29T03:24:42;99793.32;;;26.60;39.44
63916;BME280;50094;51.356;-0.196;2023-07-29T03:27:08;99796.56;;;26.78;39.39
63916;BME280;50094;51.356;-0.196;2023-07-29T03:29:35;99797.73;;;26.72;39.23
63916;BME280;50094;51.356;-0.196;2023-07-29T03:32:03;99797.76;;;26.74;39.34
63916;BME280;50094;51.356;-0.196;2023-07-29T03:34:31;99799.96;;;26.59;39.13
63916;BME280;50094;51.356;-0.196;2023-07-29T03:36:58;99802.14;;;26.74;39.52
63916;BME280;50094;51.356;-0.196;2023-07-29T03:39:25;99800.67;;;26.31;39.41
63916;BME280;50094;51.356;-0.196;2023-07-29T03:41:53;99805.14;;;26.57;39.42
63916;BME280;50094;51.356;-0.196;2023-07-29T03:44:20;99805.94;;;26.87;39.45
63916;BME280;50094;51.356;-0.196;2023-07-29T03:46:47;99805.25;;;26.92;39.39
63916;BME280;50094;51.356;-0.196;2023-07-29T03:49:14;99806.49;;;26.60;39.25
63916;BME280;50094;51.356;-0.196;2023-07-29T03:51:41;99810.89;;;26.55;39.34
63916;BME280;50094;51.356;-0.196;2023-07-29T03:54:08;99814.37;;;26.85;39.34
63916;BME280;50094;51.356;-0.196;2023-07-29T03:56:35;99812.90;;;26.92;39.30
63916;BME280;50094;51.356;-0.196;2023-07-29T03:59:02;99818.99;;;26.82;39.24
63916;BME280;50094;51.356;-0.196;2023-07-29T04:01:29;99819.01;;;26.90;39.18
63916;BME280;50094;51.356;-0.196;2023-07-29T04:03:57;99824.19;;;27.05;39.13
63916;BME280;50094;51.356;-0.196;2023-07-29T04:06:24;99824.84;;;26.50;39.22
63916;BME280;50094;51.356;-0.196;2023-07-29T04:08:51;99825.13;;;26.95;39.27
63916;BME280;50094;51.356;-0.196;2023-07-29T04:11:18;99822.53;;;26.93;39.27
63916;BME280;50094;51.356;-0.196;2023-07-29T04:13:46;99823.73;;;26.84;39.45
63916;BME280;50094;51.356;-0.196;2023-07-29T04:16:13;99823.43;;;26.91;39.23
63916;BME280;50094;51.356;-0.196;2023-07-29T04:18:40;99823.34;;;26.71;39.48
63916;BME280;50094;51.356;-0.196;2023-07-29T04:21:07;99824.06;;;26.68;39.27
63916;BME280;50094;51.356;-0.196;2023-07-29T04:23:35;99822.59;;;26.75;39.16
63916;BME280;50094;51.356;-0.196;2023-07-29T04:26:01;99827.41;;;26.62;39.17
63916;BME280;50094;51.356;-0.196;2023-07-29T04:28:28;99826.88;;;26.88;39.27
63916;BME280;50094;51.356;-0.196;2023-07-29T04:30:56;99824.11;;;26.90;39.33
63916;BME280;50094;51.356;-0.196;2023-07-29T04:33:24;99813.89;;;26.88;39.43
63916;BME280;50094;51.356;-0.196;2023-07-29T04:35:51;99827.19;;;27.07;39.21
63916;BME280;50094;51.356;-0.196;2023-07-29T04:38:19;99820.36;;;26.99;39.21
63916;BME280;50094;51.356;-0.196;2023-07-29T04:40:49;99817.27;;;26.79;39.09
63916;BME280;50094;51.356;-0.196;2023-07-29T04:43:16;99812.28;;;27.11;39.11
63916;BME280;50094;51.356;-0.196;2023-07-29T04:45:44;99808.42;;;26.74;39.27
63916;BME280;50094;51.356;-0.196;2023-07-29T04:48:11;99810.04;;;26.91;39.28
63916;BME280;50094;51.356;-0.196;2023-07-29T04:50:38;99811.87;;;26.91;39.24
63916;BME280;50094;51.356;-0.196;2023-07-29T04:53:05;99818.56;;;26.66;39.24
63916;BME280;50094;51.356;-0.196;2023-07-29T04:55:31;99814.09;;;26.77;39.38
63916;BME280;50094;51.356;-0.196;2023-07-29T04:57:59;99812.37;;;26.81;39.49
63916;BME280;50094;51.356;-0.196;2023-07-29T05:00:26;99806.41;;;26.85;39.34
63916;BME280;50094;51.356;-0.196;2023-07-29T05:02:53;99810.59;;;26.45;39.57
63916;BME280;50094;51.356;-0.196;2023-07-29T05:05:19;99806.00;;;26.72;39.59
63916;BME280;50094;51.356;-0.196;2023-07-29T05:07:46;99799.57;;;26.83;39.42
63916;BME280;50094;51.356;-0.196;2023-07-29T05:10:13;99805.19;;;26.35;39.64
63916;BME280;50094;51.356;-0.196;2023-07-29T05:12:40;99809.77;;;26.51;39.71
63916;BME280;50094;51.356;-0.196;2023-07-29T05:15:08;99810.18;;;26.42;39.62
63916;BME280;50094;51.356;-0.196;2023-07-29T05:17:35;99807.43;;;26.77;39.51
63916;BME280;50094;51.356;-0.196;2023-07-29T05:20:03;99809.06;;;26.68;39.44
63916;BME280;50094;51.356;-0.196;2023-07-29T05:22:30;99805.91;;;26.87;39.39
63916;BME280;50094;51.356;-0.196;2023-07-29T05:24:58;99800.99;;;26.54;39.44
63916;BME280;50094;51.356;-0.196;2023-07-29T05:27:26;99800.36;;;26.56;39.49
63916;BME280;50094;51.356;-0.196;2023-07-29T05:29:52;99807.94;;;26.66;39.49
63916;BME280;50094;51.356;-0.196;2023-07-29T05:32:19;99812.08;;;26.63;39.67
63916;BME280;50094;51.356;-0.196;2023-07-29T05:34:46;99817.99;;;26.70;39.56
63916;BME280;50094;51.356;-0.196;2023-07-29T05:37:14;99813.12;;;26.46;39.55
63916;BME280;50094;51.356;-0.196;2023-07-29T05:39:40;99818.85;;;26.61;39.61
63916;BME280;50094;51.356;-0.196;2023-07-29T05:42:07;99824.73;;;26.65;39.61
63916;BME280;50094;51.356;-0.196;2023-07-29T05:44:34;99827.74;;;26.51;39.67
63916;BME280;50094;51.356;-0.196;2023-07-29T05:47:02;99825.74;;;26.32;39.76
63916;BME280;50094;51.356;-0.196;2023-07-29T05:49:29;99815.91;;;26.65;39.59
63916;BME280;50094;51.356;-0.196;2023-07-29T05:51:57;99808.05;;;26.67;39.42
63916;BME280;50094;51.356;-0.196;2023-07-29T05:54:24;99811.03;;;26.69;39.48
63916;BME280;50094;51.356;-0.196;2023-07-29T05:56:50;99813.15;;;26.66;39.55
63916;BME280;50094;51.356;-0.196;2023-07-29T05:59:17;99818.78;;;26.26;39.73
63916;BME280;50094;51.356;-0.196;2023-07-29T06:01:45;99813.32;;;26.63;39.57
63916;BME280;50094;51.356;-0.196;2023-07-29T06:04:12;99816.28;;;26.59;39.59
63916;BME280;50094;51.356;-0.196;2023-07-29T06:06:40;99820.41;;;26.19;39.84
63916;BME280;50094;51.356;-0.196;2023-07-29T06:09:08;99819.39;;;26.42;39.75
63916;BME280;50094;51.356;-0.196;2023-07-29T06:11:34;99821.82;;;26.48;39.64
63916;BME280;50094;51.356;-0.196;2023-07-29T06:14:01;99825.41;;;26.25;39.84
63916;BME280;50094;51.356;-0.196;2023-07-29T06:16:28;99825.75;;;26.29;39.80
63916;BME280;50094;51.356;-0.196;2023-07-29T06:18:56;99823.48;;;26.42;39.65
63916;BME280;50094;51.356;-0.196;2023-07-29T06:21:23;99821.39;;;26.45;39.77
63916;BME280;50094;51.356;-0.196;2023-07-29T06:23:51;99823.19;;;26.40;39.82
63916;BME280;50094;51.356;-0.196;2023-07-29T06:26:18;99824.72;;;26.39;39.97
63916;BME280;50094;51.356;-0.196;2023-07-29T06:28:45;99826.74;;;26.62;39.73
63916;BME280;50094;51.356;-0.196;2023-07-29T06:31:11;99825.65;;;26.45;39.94
63916;BME280;50094;51.356;-0.196;2023-07-29T06:33:38;99826.19;;;26.37;39.90
63916;BME280;50094;51.356;-0.196;2023-07-29T06:36:05;99826.75;;;26.08;40.16
63916;BME280;50094;51.356;-0.196;2023-07-29T06:38:33;99829.59;;;26.49;39.77
63916;BME280;50094;51.356;-0.196;2023-07-29T06:40:59;99825.31;;;26.43;39.74
63916;BME280;50094;51.356;-0.196;2023-07-29T06:43:26;99827.58;;;26.32;39.69
63916;BME280;50094;51.356;-0.196;2023-07-29T06:45:53;99826.24;;;26.59;39.78
63916;BME280;50094;51.356;-0.196;2023-07-29T06:48:21;99825.60;;;26.40;39.70
63916;BME280;50094;51.356;-0.196;2023-07-29T06:50:49;99821.29;;;26.35;39.82
63916;BME280;50094;51.356;-0.196;2023-07-29T06:53:16;99821.56;;;26.59;39.69
63916;BME280;50094;51.356;-0.196;2023-07-29T06:55:44;99819.47;;;26.40;39.78
63916;BME280;50094;51.356;-0.196;2023-07-29T06:58:11;99819.20;;;26.31;40.26
63916;BME280;50094;51.356;-0.196;2023-07-29T07:00:38;99821.90;;;25.83;40.18
63916;BME280;50094;51.356;-0.196;2023-07-29T07:03:05;99819.42;;;26.39;40.02
63916;BME280;50094;51.356;-0.196;2023-07-29T07:05:32;99824.93;;;26.25;39.99
63916;BME280;50094;51.356;-0.196;2023-07-29T07:07:59;99823.77;;;26.22;40.07
63916;BME280;50094;51.356;-0.196;2023-07-29T07:10:27;99827.64;;;26.53;39.72
63916;BME280;50094;51.356;-0.196;2023-07-29T07:12:54;99833.15;;;26.40;40.02
63916;BME280;50094;51.356;-0.196;2023-07-29T07:15:22;99834.97;;;26.43;39.84
63916;BME280;50094;51.356;-0.196;2023-07-29T07:17:49;99837.67;;;26.46;39.81
63916;BME280;50094;51.356;-0.196;2023-07-29T07:20:16;99831.86;;;26.36;40.03
63916;BME280;50094;51.356;-0.196;2023-07-29T07:22:43;99833.84;;;26.19;40.24
63916;BME280;50094;51.356;-0.196;2023-07-29T07:25:10;99832.52;;;26.24;40.18
63916;BME280;50094;51.356;-0.196;2023-07-29T07:27:38;99832.91;;;26.45;40.08
63916;BME280;50094;51.356;-0.196;2023-07-29T07:30:06;99835.06;;;26.48;39.87
63916;BME280;50094;51.356;-0.196;2023-07-29T07:32:33;99832.86;;;26.04;39.92
63916;BME280;50094;51.356;-0.196;2023-07-29T07:35:00;99832.70;;;26.01;40.04
63916;BME280;50094;51.356;-0.196;2023-07-29T07:37:27;99835.80;;;26.14;40.13
63916;BME280;50094;51.356;-0.196;2023-07-29T07:39:54;99837.46;;;26.30;39.94
63916;BME280;50094;51.356;-0.196;2023-07-29T07:42:21;99839.53;;;26.34;40.28
63916;BME280;50094;51.356;-0.196;2023-07-29T07:44:49;99835.24;;;26.60;39.71
63916;BME280;50094;51.356;-0.196;2023-07-29T07:47:15;99833.72;;;26.68;39.73
63916;BME280;50094;51.356;-0.196;2023-07-29T07:49:42;99830.20;;;26.62;39.84
63916;BME280;50094;51.356;-0.196;2023-07-29T07:52:09;99833.39;;;26.53;39.74
63916;BME280;50094;51.356;-0.196;2023-07-29T07:54:37;99833.82;;;26.62;39.75
63916;BME280;50094;51.356;-0.196;2023-07-29T07:57:04;99833.16;;;26.65;39.72
63916;BME280;50094;51.356;-0.196;2023-07-29T07:59:31;99833.05;;;26.58;39.88
63916;BME280;50094;51.356;-0.196;2023-07-29T08:01:58;99832.13;;;26.63;39.70
63916;BME280;50094;51.356;-0.196;2023-07-29T08:04:25;99834.40;;;26.60;39.75
63916;BME280;50094;51.356;-0.196;2023-07-29T08:06:51;99839.11;;;26.63;39.67
63916;BME280;50094;51.356;-0.196;2023-07-29T08:09:18;99841.69;;;26.11;40.06
63916;BME280;50094;51.356;-0.196;2023-07-29T08:11:45;99843.01;;;26.17;40.19
63916;BME280;50094;51.356;-0.196;2023-07-29T08:14:12;99846.07;;;26.40;40.11
63916;BME280;50094;51.356;-0.196;2023-07-29T08:16:39;99851.97;;;26.42;40.12
63916;BME280;50094;51.356;-0.196;2023-07-29T08:19:06;99849.30;;;26.55;40.07
63916;BME280;50094;51.356;-0.196;2023-07-29T08:21:33;99846.71;;;26.36;40.25
63916;BME280;50094;51.356;-0.196;2023-07-29T08:24:00;99842.42;;;26.39;40.20
63916;BME280;50094;51.356;-0.196;2023-07-29T08:26:27;99841.23;;;26.38;40.27
63916;BME280;50094;51.356;-0.196;2023-07-29T08:28:54;99840.92;;;26.61;40.01
63916;BME280;50094;51.356;-0.196;2023-07-29T08:31:22;99836.96;;;26.40;39.93
63916;BME280;50094;51.356;-0.196;2023-07-29T08:33:48;99828.35;;;26.76;39.86
63916;BME280;50094;51.356;-0.196;2023-07-29T08:36:16;99820.67;;;26.70;39.94
63916;BME280;50094;51.356;-0.196;2023-07-29T08:38:43;99817.73;;;26.57;39.97
63916;BME280;50094;51.356;-0.196;2023-07-29T08:41:16;99814.29;;;26.74;40.04
63916;BME280;50094;51.356;-0.196;2023-07-29T08:43:49;99813.30;;;26.78;40.09
63916;BME280;50094;51.356;-0.196;2023-07-29T08:46:19;99814.16;;;26.56;40.13
63916;BME280;50094;51.356;-0.196;2023-07-29T08:48:46;99820.05;;;26.56;40.21
63916;BME280;50094;51.356;-0.196;2023-07-29T08:51:14;99823.11;;;26.72;40.33
63916;BME280;50094;51.356;-0.196;2023-07-29T08:53:42;99821.85;;;26.53;40.36
63916;BME280;50094;51.356;-0.196;2023-07-29T08:56:10;99826.73;;;26.49;40.43
63916;BME280;50094;51.356;-0.196;2023-07-29T08:58:37;99836.51;;;26.53;40.82
63916;BME280;50094;51.356;-0.196;2023-07-29T09:01:06;99838.89;;;26.60;40.64
63916;BME280;50094;51.356;-0.196;2023-07-29T09:03:33;99842.93;;;26.36;40.97
63916;BME280;50094;51.356;-0.196;2023-07-29T09:06:02;99846.55;;;26.36;40.99
63916;BME280;50094;51.356;-0.196;2023-07-29T09:08:29;99846.64;;;26.23;41.25
63916;BME280;50094;51.356;-0.196;2023-07-29T09:10:57;99851.60;;;26.39;41.09
63916;BME280;50094;51.356;-0.196;2023-07-29T09:13:25;99852.37;;;26.32;41.21
63916;BME280;50094;51.356;-0.196;2023-07-29T09:15:54;99855.10;;;26.22;41.35
63916;BME280;50094;51.356;-0.196;2023-07-29T09:18:22;99854.64;;;26.28;41.15
63916;BME280;50094;51.356;-0.196;2023-07-29T09:20:50;99853.29;;;26.22;41.21
63916;BME280;50094;51.356;-0.196;2023-07-29T09:23:17;99858.86;;;26.10;41.30
63916;BME280;50094;51.356;-0.196;2023-07-29T09:25:46;99858.31;;;26.33;41.18
63916;BME280;50094;51.356;-0.196;2023-07-29T09:28:15;99860.02;;;25.96;41.35
63916;BME280;50094;51.356;-0.196;2023-07-29T09:30:46;99858.71;;;26.26;41.36
63916;BME280;50094;51.356;-0.196;2023-07-29T09:33:13;99863.58;;;26.22;41.22
63916;BME280;50094;51.356;-0.196;2023-07-29T09:35:40;99861.37;;;26.43;40.93
63916;BME280;50094;51.356;-0.196;2023-07-29T09:38:08;99858.81;;;25.98;40.95
63916;BME280;50094;51.356;-0.196;2023-07-29T09:40:41;99859.46;;;26.54;40.87
63916;BME280;50094;51.356;-0.196;2023-07-29T09:43:09;99860.87;;;26.33;40.75
63916;BME280;50094;51.356;-0.196;2023-07-29T09:45:37;99862.27;;;26.47;40.66
63916;BME280;50094;51.356;-0.196;2023-07-29T09:48:05;99859.50;;;26.55;40.86
63916;BME280;50094;51.356;-0.196;2023-07-29T09:50:32;99855.34;;;26.37;40.93
63916;BME280;50094;51.356;-0.196;2023-07-29T09:53:00;99858.96;;;26.50;40.86
63916;BME280;50094;51.356;-0.196;2023-07-29T09:55:27;99854.05;;;26.17;40.98
63916;BME280;50094;51.356;-0.196;2023-07-29T09:57:56;99852.81;;;26.43;40.90
63916;BME280;50094;51.356;-0.196;2023-07-29T10:00:24;99848.31;;;25.95;41.12
63916;BME280;50094;51.356;-0.196;2023-07-29T10:02:52;99850.20;;;26.38;40.85
63916;BME280;50094;51.356;-0.196;2023-07-29T10:05:21;99854.10;;;26.40;40.73
63916;BME280;50094;51.356;-0.196;2023-07-29T10:07:48;99861.87;;;26.40;40.72
63916;BME280;50094;51.356;-0.196;2023-07-29T10:10:16;99861.31;;;26.21;40.63
63916;BME280;50094;51.356;-0.196;2023-07-29T10:12:44;99862.03;;;26.45;40.61
63916;BME280;50094;51.356;-0.196;2023-07-29T10:15:11;99858.80;;;26.45;40.44
63916;BME280;50094;51.356;-0.196;2023-07-29T10:17:39;99855.32;;;26.35;40.77
63916;BME280;50094;51.356;-0.196;2023-07-29T10:20:08;99852.86;;;25.88;40.71
63916;BME280;50094;51.356;-0.196;2023-07-29T10:22:37;99844.65;;;26.29;40.72
63916;BME280;50094;51.356;-0.196;2023-07-29T10:25:07;99853.52;;;25.89;41.09
63916;BME280;50094;51.356;-0.196;2023-07-29T10:27:41;99850.78;;;26.35;40.50
63916;BME280;50094;51.356;-0.196;2023-07-29T10:30:11;99849.83;;;26.09;40.47
63916;BME280;50094;51.356;-0.196;2023-07-29T10:32:38;99850.49;;;26.25;40.67
63916;BME280;50094;51.356;-0.196;2023-07-29T10:35:09;99854.93;;;26.31;40.79
63916;BME280;50094;51.356;-0.196;2023-07-29T10:37:37;99854.70;;;26.03;40.71
63916;BME280;50094;51.356;-0.196;2023-07-29T10:40:07;99850.86;;;26.00;40.17
63916;BME280;50094;51.356;-0.196;2023-07-29T10:42:35;99853.40;;;26.23;40.50
63916;BME280;50094;51.356;-0.196;2023-07-29T10:45:18;99857.38;;;26.29;40.17
63916;BME280;50094;51.356;-0.196;2023-07-29T10:47:46;99859.12;;;26.41;40.27
63916;BME280;50094;51.356;-0.196;2023-07-29T10:50:18;99860.56;;;26.38;40.19
63916;BME280;50094;51.356;-0.196;2023-07-29T10:52:50;99862.77;;;26.41;40.09
63916;BME280;50094;51.356;-0.196;2023-07-29T10:55:27;99863.93;;;26.35;40.00
63916;BME280;50094;51.356;-0.196;2023-07-29T10:58:08;99863.10;;;26.23;40.19
63916;BME280;50094;51.356;-0.196;2023-07-29T11:00:36;99858.86;;;26.13;40.13
63916;BME280;50094;51.356;-0.196;2023-07-29T11:03:06;99858.98;;;26.18;40.56
63916;BME280;50094;51.356;-0.196;2023-07-29T11:05:47;99864.66;;;26.17;40.36
63916;BME280;50094;51.356;-0.196;2023-07-29T11:08:19;99858.78;;;26.30;40.03
63916;BME280;50094;51.356;-0.196;2023-07-29T11:10:59;99857.54;;;26.08;39.97
63916;BME280;50094;51.356;-0.196;2023-07-29T11:13:28;99851.70;;;26.44;40.00
63916;BME280;50094;51.356;-0.196;2023-07-29T11:15:55;99856.91;;;26.50;39.84
63916;BME280;50094;51.356;-0.196;2023-07-29T11:18:22;99857.46;;;26.42;40.06
63916;BME280;50094;51.356;-0.196;2023-07-29T11:20:54;99857.12;;;26.14;39.71
63916;BME280;50094;51.356;-0.196;2023-07-29T11:23:27;99851.23;;;26.44;39.48
63916;BME280;50094;51.356;-0.196;2023-07-29T11:25:55;99854.93;;;26.29;39.62
63916;BME280;50094;51.356;-0.196;2023-07-29T11:28:22;99856.00;;;26.25;39.44
63916;BME280;50094;51.356;-0.196;2023-07-29T11:30:51;99851.75;;;26.71;39.27
63916;BME280;50094;51.356;-0.196;2023-07-29T11:33:20;99864.52;;;26.27;39.62
63916;BME280;50094;51.356;-0.196;2023-07-29T11:35:47;99874.15;;;26.27;39.22
63916;BME280;50094;51.356;-0.196;2023-07-29T11:38:15;99877.37;;;26.13;39.36
63916;BME280;50094;51.356;-0.196;2023-07-29T11:40:42;99878.05;;;26.18;39.50
63916;BME280;50094;51.356;-0.196;2023-07-29T11:43:17;99880.12;;;26.27;39.35
63916;BME280;50094;51.356;-0.196;2023-07-29T11:45:45;99883.85;;;26.04;39.58
63916;BME280;50094;51.356;-0.196;2023-07-29T11:48:12;99881.37;;;26.17;39.42
63916;BME280;50094;51.356;-0.196;2023-07-29T11:50:40;99880.87;;;26.50;39.60
63916;BME280;50094;51.356;-0.196;2023-07-29T11:53:07;99880.39;;;26.27;39.73
63916;BME280;50094;51.356;-0.196;2023-07-29T11:55:35;99880.89;;;26.21;39.81
63916;BME280;50094;51.356;-0.196;2023-07-29T11:58:02;99882.76;;;26.14;39.90
63916;BME280;50094;51.356;-0.196;2023-07-29T12:00:31;99881.82;;;26.37;39.67
63916;BME280;50094;51.356;-0.196;2023-07-29T12:02:59;99879.95;;;26.12;39.93
63916;BME280;50094;51.356;-0.196;2023-07-29T12:05:27;99879.91;;;26.19;39.79
63916;BME280;50094;51.356;-0.196;2023-07-29T12:07:54;99880.28;;;26.18;39.73
63916;BME280;50094;51.356;-0.196;2023-07-29T12:10:22;99879.33;;;26.18;39.64
63916;BME280;50094;51.356;-0.196;2023-07-29T12:12:50;99878.26;;;26.18;39.83
63916;BME280;50094;51.356;-0.196;2023-07-29T12:15:25;99877.51;;;26.23;39.89
63916;BME280;50094;51.356;-0.196;2023-07-29T12:17:55;99875.20;;;26.23;39.63
63916;BME280;50094;51.356;-0.196;2023-07-29T12:20:23;99880.44;;;25.89;39.74
63916;BME280;50094;51.356;-0.196;2023-07-29T12:22:54;99878.09;;;26.17;39.84
63916;BME280;50094;51.356;-0.196;2023-07-29T12:25:22;99872.45;;;26.39;39.27
63916;BME280;50094;51.356;-0.196;2023-07-29T12:27:50;99879.74;;;26.30;39.32
63916;BME280;50094;51.356;-0.196;2023-07-29T12:30:20;99882.98;;;26.15;39.20
63916;BME280;50094;51.356;-0.196;2023-07-29T12:32:48;99887.88;;;26.16;39.37
63916;BME280;50094;51.356;-0.196;2023-07-29T12:35:15;99891.95;;;26.34;39.44
63916;BME280;50094;51.356;-0.196;2023-07-29T12:37:43;99894.96;;;26.28;39.26
63916;BME280;50094;51.356;-0.196;2023-07-29T12:40:21;99896.47;;;26.38;39.12
63916;BME280;50094;51.356;-0.196;2023-07-29T12:42:49;99910.08;;;26.42;39.30
63916;BME280;50094;51.356;-0.196;2023-07-29T12:45:17;99910.28;;;26.40;39.11
63916;BME280;50094;51.356;-0.196;2023-07-29T12:47:44;99910.15;;;26.24;38.97
63916;BME280;50094;51.356;-0.196;2023-07-29T12:50:11;99902.87;;;26.30;39.21
63916;BME280;50094;51.356;-0.196;2023-07-29T12:52:38;99901.46;;;26.33;39.20
63916;BME280;50094;51.356;-0.196;2023-07-29T12:55:06;99900.44;;;26.56;39.20